sensor_id;sensor_type;location;lat;lon;timestamp;P1;durP1;ratioP1;P2;durP2;ratioP2
20488;SDS011;10403;54.092;12.122;2022-08-24T00:02:00;5.43;;;2.55;;
20488;SDS011;10403;54.092;12.122;2022-08-24T00:04:29;6.57;;;2.53;;
20488;SDS011;10403;54.092;12.122;2022-08-24T00:06:58;7.75;;;2.40;;
20488;SDS011;10403;54.092;12.122;2022-08-24T00:09:28;5.22;;;2.53;;
20488;SDS011;10403;54.092;12.122;2022-08-24T00:11:57;6.40;;;2.30;;
20488;SDS011;10403;54.092;12.122;2022-08-24T00:14:24;5.10;;;2.17;;
20488;SDS011;10403;54.092;12.122;2022-08-24T00:16:52;7.07;;;2.92;;
20488;SDS011;10403;54.092;12.122;2022-08-24T00:19:20;7.32;;;2.67;;
20488;SDS011;10403;54.092;12.122;2022-08-24T00:21:47;8.18;;;2.22;;
20488;SDS011;10403;54.092;12.122;2022-08-24T00:24:15;8.90;;;2.60;;
20488;SDS011;10403;54.092;12.122;2022-08-24T00:26:42;9.15;;;2.63;;
20488;SDS011;10403;54.092;12.122;2022-08-24T00:29:17;6.57;;;2.63;;
20488;SDS011;10403;54.092;12.122;2022-08-24T00:31:46;8.18;;;2.67;;
20488;SDS011;10403;54.092;12.122;2022-08-24T00:34:14;5.25;;;2.78;;
20488;SDS011;10403;54.092;12.122;2022-08-24T00:36:44;7.63;;;2.78;;
20488;SDS011;10403;54.092;12.122;2022-08-24T00:39:12;7.68;;;3.08;;
20488;SDS011;10403;54.092;12.122;2022-08-24T00:41:43;6.95;;;2.97;;
20488;SDS011;10403;54.092;12.122;2022-08-24T00:44:13;8.10;;;3.10;;
20488;SDS011;10403;54.092;12.122;2022-08-24T00:49:43;8.70;;;3.28;;
20488;SDS011;10403;54.092;12.122;2022-08-24T00:55:20;6.60;;;2.83;;
20488;SDS011;10403;54.092;12.122;2022-08-24T00:58:01;9.00;;;2.83;;
20488;SDS011;10403;54.092;12.122;2022-08-24T01:00:44;5.70;;;2.60;;
20488;SDS011;10403;54.092;12.122;2022-08-24T01:03:20;9.43;;;3.35;;
20488;SDS011;10403;54.092;12.122;2022-08-24T01:05:48;9.32;;;2.97;;
20488;SDS011;10403;54.092;12.122;2022-08-24T01:08:15;8.25;;;3.13;;
20488;SDS011;10403;54.092;12.122;2022-08-24T01:10:47;6.75;;;2.80;;
20488;SDS011;10403;54.092;12.122;2022-08-24T01:13:29;8.48;;;2.92;;
20488;SDS011;10403;54.092;12.122;2022-08-24T01:16:00;6.57;;;2.95;;
20488;SDS011;10403;54.092;12.122;2022-08-24T01:18:32;7.88;;;2.90;;
20488;SDS011;10403;54.092;12.122;2022-08-24T01:24:04;9.57;;;2.50;;
20488;SDS011;10403;54.092;12.122;2022-08-24T01:26:38;6.43;;;2.88;;
20488;SDS011;10403;54.092;12.122;2022-08-24T01:29:12;8.38;;;2.90;;
20488;SDS011;10403;54.092;12.122;2022-08-24T01:31:56;6.60;;;2.75;;
20488;SDS011;10403;54.092;12.122;2022-08-24T01:34:24;5.97;;;2.75;;
20488;SDS011;10403;54.092;12.122;2022-08-24T01:36:52;9.05;;;3.00;;
20488;SDS011;10403;54.092;12.122;2022-08-24T01:39:31;7.60;;;2.72;;
20488;SDS011;10403;54.092;12.122;2022-08-24T01:42:03;7.38;;;2.88;;
20488;SDS011;10403;54.092;12.122;2022-08-24T01:44:30;7.80;;;3.42;;
20488;SDS011;10403;54.092;12.122;2022-08-24T01:47:01;10.55;;;3.15;;
20488;SDS011;10403;54.092;12.122;2022-08-24T01:49:34;4.97;;;2.80;;
20488;SDS011;10403;54.092;12.122;2022-08-24T01:52:07;7.30;;;2.80;;
20488;SDS011;10403;54.092;12.122;2022-08-24T01:54:44;7.90;;;3.17;;
20488;SDS011;10403;54.092;12.122;2022-08-24T01:57:11;7.65;;;3.30;;
20488;SDS011;10403;54.092;12.122;2022-08-24T01:59:42;9.80;;;2.90;;
20488;SDS011;10403;54.092;12.122;2022-08-24T02:02:11;8.65;;;3.20;;
20488;SDS011;10403;54.092;12.122;2022-08-24T02:04:46;7.82;;;3.20;;
20488;SDS011;10403;54.092;12.122;2022-08-24T02:07:13;8.65;;;3.35;;
20488;SDS011;10403;54.092;12.122;2022-08-24T02:09:40;6.72;;;3.03;;
20488;SDS011;10403;54.092;12.122;2022-08-24T02:12:08;11.95;;;3.25;;
20488;SDS011;10403;54.092;12.122;2022-08-24T02:14:35;6.65;;;2.78;;
20488;SDS011;10403;54.092;12.122;2022-08-24T02:17:03;10.90;;;3.53;;
20488;SDS011;10403;54.092;12.122;2022-08-24T02:19:33;6.90;;;3.10;;
20488;SDS011;10403;54.092;12.122;2022-08-24T02:22:01;7.10;;;3.05;;
20488;SDS011;10403;54.092;12.122;2022-08-24T02:24:28;10.25;;;3.20;;
20488;SDS011;10403;54.092;12.122;2022-08-24T02:27:00;5.20;;;2.72;;
20488;SDS011;10403;54.092;12.122;2022-08-24T02:29:32;7.10;;;3.90;;
20488;SDS011;10403;54.092;12.122;2022-08-24T02:31:59;7.45;;;3.03;;
20488;SDS011;10403;54.092;12.122;2022-08-24T02:34:26;7.95;;;3.17;;
20488;SDS011;10403;54.092;12.122;2022-08-24T02:36:53;8.30;;;3.20;;
20488;SDS011;10403;54.092;12.122;2022-08-24T02:39:20;9.68;;;3.42;;
20488;SDS011;10403;54.092;12.122;2022-08-24T02:41:48;9.80;;;4.15;;
20488;SDS011;10403;54.092;12.122;2022-08-24T02:44:17;9.50;;;3.70;;
20488;SDS011;10403;54.092;12.122;2022-08-24T02:46:44;7.18;;;3.60;;
20488;SDS011;10403;54.092;12.122;2022-08-24T02:49:12;8.87;;;3.90;;
20488;SDS011;10403;54.092;12.122;2022-08-24T02:51:41;9.48;;;4.38;;
20488;SDS011;10403;54.092;12.122;2022-08-24T02:54:12;9.35;;;3.78;;
20488;SDS011;10403;54.092;12.122;2022-08-24T02:56:45;8.55;;;4.40;;
20488;SDS011;10403;54.092;12.122;2022-08-24T02:59:13;8.93;;;3.90;;
20488;SDS011;10403;54.092;12.122;2022-08-24T03:01:42;10.77;;;4.20;;
20488;SDS011;10403;54.092;12.122;2022-08-24T03:04:10;10.10;;;4.07;;
20488;SDS011;10403;54.092;12.122;2022-08-24T03:06:37;14.70;;;3.80;;
20488;SDS011;10403;54.092;12.122;2022-08-24T03:09:05;7.38;;;3.60;;
20488;SDS011;10403;54.092;12.122;2022-08-24T03:11:34;8.97;;;3.17;;
20488;SDS011;10403;54.092;12.122;2022-08-24T03:14:01;9.27;;;3.70;;
20488;SDS011;10403;54.092;12.122;2022-08-24T03:16:29;9.30;;;3.53;;
20488;SDS011;10403;54.092;12.122;2022-08-24T03:18:58;6.17;;;3.33;;
20488;SDS011;10403;54.092;12.122;2022-08-24T03:21:26;7.80;;;3.40;;
20488;SDS011;10403;54.092;12.122;2022-08-24T03:23:53;5.30;;;3.40;;
20488;SDS011;10403;54.092;12.122;2022-08-24T03:26:20;8.02;;;3.90;;
20488;SDS011;10403;54.092;12.122;2022-08-24T03:28:48;9.10;;;3.93;;
20488;SDS011;10403;54.092;12.122;2022-08-24T03:31:17;6.27;;;3.97;;
20488;SDS011;10403;54.092;12.122;2022-08-24T03:33:44;6.80;;;3.80;;
20488;SDS011;10403;54.092;12.122;2022-08-24T03:36:12;15.60;;;4.38;;
20488;SDS011;10403;54.092;12.122;2022-08-24T03:38:40;5.20;;;3.37;;
20488;SDS011;10403;54.092;12.122;2022-08-24T03:41:08;6.37;;;3.60;;
20488;SDS011;10403;54.092;12.122;2022-08-24T03:43:37;6.60;;;3.30;;
20488;SDS011;10403;54.092;12.122;2022-08-24T03:46:12;5.43;;;3.83;;
20488;SDS011;10403;54.092;12.122;2022-08-24T03:48:45;7.20;;;3.67;;
20488;SDS011;10403;54.092;12.122;2022-08-24T03:51:15;12.87;;;4.30;;
20488;SDS011;10403;54.092;12.122;2022-08-24T03:53:45;6.97;;;3.77;;
20488;SDS011;10403;54.092;12.122;2022-08-24T03:56:12;6.00;;;3.53;;
20488;SDS011;10403;54.092;12.122;2022-08-24T03:58:40;7.90;;;4.00;;
20488;SDS011;10403;54.092;12.122;2022-08-24T04:01:08;6.00;;;3.40;;
20488;SDS011;10403;54.092;12.122;2022-08-24T04:03:37;6.63;;;3.40;;
20488;SDS011;10403;54.092;12.122;2022-08-24T04:06:07;8.20;;;3.87;;
20488;SDS011;10403;54.092;12.122;2022-08-24T04:08:37;5.27;;;3.63;;
20488;SDS011;10403;54.092;12.122;2022-08-24T04:11:14;7.80;;;4.13;;
20488;SDS011;10403;54.092;12.122;2022-08-24T04:13:45;9.27;;;4.40;;
20488;SDS011;10403;54.092;12.122;2022-08-24T04:16:14;8.63;;;4.38;;
20488;SDS011;10403;54.092;12.122;2022-08-24T04:18:43;6.90;;;3.80;;
20488;SDS011;10403;54.092;12.122;2022-08-24T04:21:16;6.10;;;4.10;;
20488;SDS011;10403;54.092;12.122;2022-08-24T04:23:55;14.73;;;4.82;;
20488;SDS011;10403;54.092;12.122;2022-08-24T04:26:23;7.47;;;3.97;;
20488;SDS011;10403;54.092;12.122;2022-08-24T04:29:12;8.20;;;3.95;;
20488;SDS011;10403;54.092;12.122;2022-08-24T04:31:42;6.07;;;3.72;;
20488;SDS011;10403;54.092;12.122;2022-08-24T04:34:10;11.03;;;4.33;;
20488;SDS011;10403;54.092;12.122;2022-08-24T04:36:41;5.77;;;3.77;;
20488;SDS011;10403;54.092;12.122;2022-08-24T04:39:10;6.63;;;3.90;;
20488;SDS011;10403;54.092;12.122;2022-08-24T04:41:38;9.10;;;4.68;;
20488;SDS011;10403;54.092;12.122;2022-08-24T04:44:07;9.55;;;3.60;;
20488;SDS011;10403;54.092;12.122;2022-08-24T04:46:34;8.23;;;3.40;;
20488;SDS011;10403;54.092;12.122;2022-08-24T04:49:01;5.73;;;3.70;;
20488;SDS011;10403;54.092;12.122;2022-08-24T04:51:29;7.03;;;3.67;;
20488;SDS011;10403;54.092;12.122;2022-08-24T04:54:01;6.00;;;3.47;;
20488;SDS011;10403;54.092;12.122;2022-08-24T04:56:29;6.70;;;3.72;;
20488;SDS011;10403;54.092;12.122;2022-08-24T04:58:56;5.07;;;3.20;;
20488;SDS011;10403;54.092;12.122;2022-08-24T05:01:24;7.18;;;2.83;;
20488;SDS011;10403;54.092;12.122;2022-08-24T05:03:54;7.45;;;2.97;;
20488;SDS011;10403;54.092;12.122;2022-08-24T05:06:23;9.25;;;3.28;;
20488;SDS011;10403;54.092;12.122;2022-08-24T05:08:54;8.55;;;3.30;;
20488;SDS011;10403;54.092;12.122;2022-08-24T05:11:23;6.22;;;2.80;;
20488;SDS011;10403;54.092;12.122;2022-08-24T05:13:53;7.18;;;2.63;;
20488;SDS011;10403;54.092;12.122;2022-08-24T05:16:21;8.32;;;3.50;;
20488;SDS011;10403;54.092;12.122;2022-08-24T05:18:50;7.82;;;3.30;;
20488;SDS011;10403;54.092;12.122;2022-08-24T05:21:19;8.70;;;2.88;;
20488;SDS011;10403;54.092;12.122;2022-08-24T05:23:49;5.45;;;3.38;;
20488;SDS011;10403;54.092;12.122;2022-08-24T05:26:17;6.20;;;2.97;;
20488;SDS011;10403;54.092;12.122;2022-08-24T05:28:54;7.82;;;3.30;;
20488;SDS011;10403;54.092;12.122;2022-08-24T05:31:26;6.22;;;3.20;;
20488;SDS011;10403;54.092;12.122;2022-08-24T05:33:57;5.70;;;3.08;;
20488;SDS011;10403;54.092;12.122;2022-08-24T05:36:31;8.48;;;3.20;;
20488;SDS011;10403;54.092;12.122;2022-08-24T05:39:04;9.43;;;3.40;;
20488;SDS011;10403;54.092;12.122;2022-08-24T05:41:55;8.50;;;3.47;;
20488;SDS011;10403;54.092;12.122;2022-08-24T05:44:22;7.05;;;3.05;;
20488;SDS011;10403;54.092;12.122;2022-08-24T05:46:56;7.63;;;2.30;;
20488;SDS011;10403;54.092;12.122;2022-08-24T05:49:25;7.97;;;2.88;;
20488;SDS011;10403;54.092;12.122;2022-08-24T05:51:53;6.47;;;3.28;;
20488;SDS011;10403;54.092;12.122;2022-08-24T05:54:20;10.13;;;2.72;;
20488;SDS011;10403;54.092;12.122;2022-08-24T05:56:48;7.68;;;2.63;;
20488;SDS011;10403;54.092;12.122;2022-08-24T05:59:16;9.55;;;3.42;;
20488;SDS011;10403;54.092;12.122;2022-08-24T06:01:44;6.88;;;2.53;;
20488;SDS011;10403;54.092;12.122;2022-08-24T06:04:12;6.20;;;2.50;;
20488;SDS011;10403;54.092;12.122;2022-08-24T06:06:40;5.45;;;2.33;;
20488;SDS011;10403;54.092;12.122;2022-08-24T06:09:09;8.23;;;2.67;;
20488;SDS011;10403;54.092;12.122;2022-08-24T06:11:38;8.68;;;2.55;;
20488;SDS011;10403;54.092;12.122;2022-08-24T06:14:08;9.30;;;3.00;;
20488;SDS011;10403;54.092;12.122;2022-08-24T06:16:40;5.57;;;2.67;;
20488;SDS011;10403;54.092;12.122;2022-08-24T06:19:12;6.07;;;2.28;;
20488;SDS011;10403;54.092;12.122;2022-08-24T06:21:42;9.23;;;2.70;;
20488;SDS011;10403;54.092;12.122;2022-08-24T06:24:12;8.05;;;2.63;;
20488;SDS011;10403;54.092;12.122;2022-08-24T06:26:41;7.40;;;2.70;;
20488;SDS011;10403;54.092;12.122;2022-08-24T06:29:29;10.30;;;3.10;;
20488;SDS011;10403;54.092;12.122;2022-08-24T06:31:59;9.45;;;2.63;;
20488;SDS011;10403;54.092;12.122;2022-08-24T06:34:26;9.68;;;2.88;;
20488;SDS011;10403;54.092;12.122;2022-08-24T06:36:54;7.40;;;2.78;;
20488;SDS011;10403;54.092;12.122;2022-08-24T06:39:22;8.40;;;2.55;;
20488;SDS011;10403;54.092;12.122;2022-08-24T06:41:50;8.85;;;3.08;;
20488;SDS011;10403;54.092;12.122;2022-08-24T06:44:17;6.22;;;2.35;;
20488;SDS011;10403;54.092;12.122;2022-08-24T06:46:44;7.82;;;3.05;;
20488;SDS011;10403;54.092;12.122;2022-08-24T06:49:32;8.05;;;3.20;;
20488;SDS011;10403;54.092;12.122;2022-08-24T06:51:59;18.25;;;3.15;;
20488;SDS011;10403;54.092;12.122;2022-08-24T06:54:26;22.10;;;3.45;;
20488;SDS011;10403;54.092;12.122;2022-08-24T06:56:53;6.68;;;2.80;;
20488;SDS011;10403;54.092;12.122;2022-08-24T06:59:21;10.98;;;3.00;;
20488;SDS011;10403;54.092;12.122;2022-08-24T07:01:48;6.75;;;2.25;;
20488;SDS011;10403;54.092;12.122;2022-08-24T07:04:16;6.75;;;2.60;;
20488;SDS011;10403;54.092;12.122;2022-08-24T07:06:44;10.52;;;2.63;;
20488;SDS011;10403;54.092;12.122;2022-08-24T07:09:11;7.75;;;2.38;;
20488;SDS011;10403;54.092;12.122;2022-08-24T07:11:39;8.73;;;2.47;;
20488;SDS011;10403;54.092;12.122;2022-08-24T07:14:06;7.43;;;2.20;;
20488;SDS011;10403;54.092;12.122;2022-08-24T07:16:33;8.40;;;2.30;;
20488;SDS011;10403;54.092;12.122;2022-08-24T07:19:02;7.90;;;2.33;;
20488;SDS011;10403;54.092;12.122;2022-08-24T07:21:31;6.47;;;2.10;;
20488;SDS011;10403;54.092;12.122;2022-08-24T07:23:58;6.25;;;2.13;;
20488;SDS011;10403;54.092;12.122;2022-08-24T07:26:29;12.05;;;2.58;;
20488;SDS011;10403;54.092;12.122;2022-08-24T07:28:57;5.82;;;2.22;;
20488;SDS011;10403;54.092;12.122;2022-08-24T07:31:32;12.43;;;2.42;;
20488;SDS011;10403;54.092;12.122;2022-08-24T07:34:04;6.82;;;2.15;;
20488;SDS011;10403;54.092;12.122;2022-08-24T07:36:33;13.27;;;3.20;;
20488;SDS011;10403;54.092;12.122;2022-08-24T07:39:09;8.18;;;2.28;;
20488;SDS011;10403;54.092;12.122;2022-08-24T07:41:38;9.60;;;2.30;;
20488;SDS011;10403;54.092;12.122;2022-08-24T07:44:28;14.13;;;2.65;;
20488;SDS011;10403;54.092;12.122;2022-08-24T07:46:57;6.13;;;1.85;;
20488;SDS011;10403;54.092;12.122;2022-08-24T07:50:00;11.07;;;2.40;;
20488;SDS011;10403;54.092;12.122;2022-08-24T07:52:27;5.85;;;2.10;;
20488;SDS011;10403;54.092;12.122;2022-08-24T07:54:54;7.38;;;1.80;;
20488;SDS011;10403;54.092;12.122;2022-08-24T07:57:22;10.23;;;2.60;;
20488;SDS011;10403;54.092;12.122;2022-08-24T07:59:49;27.73;;;4.45;;
20488;SDS011;10403;54.092;12.122;2022-08-24T08:02:16;14.82;;;3.05;;
20488;SDS011;10403;54.092;12.122;2022-08-24T08:04:44;28.95;;;4.05;;
20488;SDS011;10403;54.092;12.122;2022-08-24T08:07:12;13.45;;;2.72;;
20488;SDS011;10403;54.092;12.122;2022-08-24T08:09:39;14.35;;;3.10;;
20488;SDS011;10403;54.092;12.122;2022-08-24T08:12:07;24.60;;;3.83;;
20488;SDS011;10403;54.092;12.122;2022-08-24T08:14:34;7.25;;;2.20;;
20488;SDS011;10403;54.092;12.122;2022-08-24T08:17:03;16.33;;;3.05;;
20488;SDS011;10403;54.092;12.122;2022-08-24T08:19:33;7.70;;;2.30;;
20488;SDS011;10403;54.092;12.122;2022-08-24T08:22:00;5.50;;;1.83;;
20488;SDS011;10403;54.092;12.122;2022-08-24T08:24:47;8.10;;;2.60;;
20488;SDS011;10403;54.092;12.122;2022-08-24T08:27:16;6.28;;;1.98;;
20488;SDS011;10403;54.092;12.122;2022-08-24T08:29:43;5.18;;;1.80;;
20488;SDS011;10403;54.092;12.122;2022-08-24T08:32:11;6.60;;;2.40;;
20488;SDS011;10403;54.092;12.122;2022-08-24T08:34:42;7.88;;;2.20;;
20488;SDS011;10403;54.092;12.122;2022-08-24T08:37:11;12.00;;;2.42;;
20488;SDS011;10403;54.092;12.122;2022-08-24T08:39:39;8.02;;;2.70;;
20488;SDS011;10403;54.092;12.122;2022-08-24T08:53:46;6.38;;;2.50;;
20488;SDS011;10403;54.092;12.122;2022-08-24T08:56:58;7.00;;;2.25;;
20488;SDS011;10403;54.092;12.122;2022-08-24T09:05:26;11.00;;;2.60;;
20488;SDS011;10403;54.092;12.122;2022-08-24T09:11:39;6.28;;;2.47;;
20488;SDS011;10403;54.092;12.122;2022-08-24T09:14:56;4.43;;;1.98;;
20488;SDS011;10403;54.092;12.122;2022-08-24T09:18:07;4.57;;;2.10;;
20488;SDS011;10403;54.092;12.122;2022-08-24T09:27:26;6.28;;;2.40;;
20488;SDS011;10403;54.092;12.122;2022-08-24T09:30:38;8.82;;;2.83;;
20488;SDS011;10403;54.092;12.122;2022-08-24T09:33:27;4.95;;;2.05;;
20488;SDS011;10403;54.092;12.122;2022-08-24T09:36:19;15.63;;;2.60;;
20488;SDS011;10403;54.092;12.122;2022-08-24T09:47:45;9.98;;;2.28;;
20488;SDS011;10403;54.092;12.122;2022-08-24T09:50:48;5.72;;;2.67;;
20488;SDS011;10403;54.092;12.122;2022-08-24T09:53:46;5.15;;;2.10;;
20488;SDS011;10403;54.092;12.122;2022-08-24T09:56:41;7.68;;;2.33;;
20488;SDS011;10403;54.092;12.122;2022-08-24T10:02:53;8.07;;;2.00;;
20488;SDS011;10403;54.092;12.122;2022-08-24T10:15:21;7.75;;;2.45;;
20488;SDS011;10403;54.092;12.122;2022-08-24T10:20:48;5.97;;;2.47;;
20488;SDS011;10403;54.092;12.122;2022-08-24T10:27:03;8.60;;;2.55;;
20488;SDS011;10403;54.092;12.122;2022-08-24T10:42:06;5.07;;;1.92;;
20488;SDS011;10403;54.092;12.122;2022-08-24T10:45:48;8.65;;;2.05;;
20488;SDS011;10403;54.092;12.122;2022-08-24T10:54:26;6.55;;;2.17;;
20488;SDS011;10403;54.092;12.122;2022-08-24T10:59:51;4.00;;;1.90;;
20488;SDS011;10403;54.092;12.122;2022-08-24T11:02:33;7.55;;;2.30;;
20488;SDS011;10403;54.092;12.122;2022-08-24T11:05:05;8.38;;;2.20;;
20488;SDS011;10403;54.092;12.122;2022-08-24T11:07:50;8.43;;;2.20;;
20488;SDS011;10403;54.092;12.122;2022-08-24T11:10:33;7.28;;;2.25;;
20488;SDS011;10403;54.092;12.122;2022-08-24T11:13:48;7.72;;;2.13;;
20488;SDS011;10403;54.092;12.122;2022-08-24T11:16:00;5.45;;;2.20;;
20488;SDS011;10403;54.092;12.122;2022-08-24T11:18:50;8.45;;;1.80;;
20488;SDS011;10403;54.092;12.122;2022-08-24T11:26:54;6.25;;;2.05;;
20488;SDS011;10403;54.092;12.122;2022-08-24T11:30:08;10.32;;;2.20;;
20488;SDS011;10403;54.092;12.122;2022-08-24T11:37:45;6.80;;;2.08;;
20488;SDS011;10403;54.092;12.122;2022-08-24T11:40:14;8.25;;;1.63;;
20488;SDS011;10403;54.092;12.122;2022-08-24T11:42:51;5.90;;;2.30;;
20488;SDS011;10403;54.092;12.122;2022-08-24T11:54:21;7.85;;;2.20;;
20488;SDS011;10403;54.092;12.122;2022-08-24T11:57:14;5.00;;;2.17;;
20488;SDS011;10403;54.092;12.122;2022-08-24T11:59:59;6.50;;;1.80;;
20488;SDS011;10403;54.092;12.122;2022-08-24T12:08:46;7.15;;;1.90;;
20488;SDS011;10403;54.092;12.122;2022-08-24T12:11:37;8.77;;;1.98;;
20488;SDS011;10403;54.092;12.122;2022-08-24T12:14:30;6.40;;;2.00;;
20488;SDS011;10403;54.092;12.122;2022-08-24T12:17:33;9.23;;;2.13;;
20488;SDS011;10403;54.092;12.122;2022-08-24T12:20:23;5.53;;;1.75;;
20488;SDS011;10403;54.092;12.122;2022-08-24T12:23:06;7.80;;;2.55;;
20488;SDS011;10403;54.092;12.122;2022-08-24T12:25:56;4.88;;;2.15;;
20488;SDS011;10403;54.092;12.122;2022-08-24T12:29:27;7.78;;;1.90;;
20488;SDS011;10403;54.092;12.122;2022-08-24T12:32:13;7.90;;;2.15;;
20488;SDS011;10403;54.092;12.122;2022-08-24T12:35:02;6.80;;;2.38;;
20488;SDS011;10403;54.092;12.122;2022-08-24T12:37:52;5.57;;;1.80;;
20488;SDS011;10403;54.092;12.122;2022-08-24T12:40:38;7.10;;;2.50;;
20488;SDS011;10403;54.092;12.122;2022-08-24T12:43:25;5.65;;;2.00;;
20488;SDS011;10403;54.092;12.122;2022-08-24T12:46:24;5.63;;;2.08;;
20488;SDS011;10403;54.092;12.122;2022-08-24T12:48:54;10.00;;;2.70;;
20488;SDS011;10403;54.092;12.122;2022-08-24T12:51:39;8.15;;;2.08;;
20488;SDS011;10403;54.092;12.122;2022-08-24T12:59:46;4.55;;;1.95;;
20488;SDS011;10403;54.092;12.122;2022-08-24T13:15:18;7.15;;;2.35;;
20488;SDS011;10403;54.092;12.122;2022-08-24T13:17:45;8.00;;;2.15;;
20488;SDS011;10403;54.092;12.122;2022-08-24T13:36:40;8.35;;;1.98;;
20488;SDS011;10403;54.092;12.122;2022-08-24T13:45:35;9.50;;;2.50;;
20488;SDS011;10403;54.092;12.122;2022-08-24T13:48:56;6.15;;;2.15;;
20488;SDS011;10403;54.092;12.122;2022-08-24T14:00:30;8.05;;;1.80;;
20488;SDS011;10403;54.092;12.122;2022-08-24T14:17:40;6.60;;;1.73;;
20488;SDS011;10403;54.092;12.122;2022-08-24T14:37:27;7.03;;;2.08;;
20488;SDS011;10403;54.092;12.122;2022-08-24T14:42:56;7.05;;;1.95;;
20488;SDS011;10403;54.092;12.122;2022-08-24T14:49:26;5.22;;;2.00;;
20488;SDS011;10403;54.092;12.122;2022-08-24T14:52:23;4.90;;;1.73;;
20488;SDS011;10403;54.092;12.122;2022-08-24T14:57:46;10.23;;;2.20;;
20488;SDS011;10403;54.092;12.122;2022-08-24T15:03:45;2.83;;;1.70;;
20488;SDS011;10403;54.092;12.122;2022-08-24T15:06:50;5.15;;;2.03;;
20488;SDS011;10403;54.092;12.122;2022-08-24T15:09:33;7.38;;;2.00;;
20488;SDS011;10403;54.092;12.122;2022-08-24T15:23:27;7.53;;;1.90;;
20488;SDS011;10403;54.092;12.122;2022-08-24T15:26:23;2.95;;;1.67;;
20488;SDS011;10403;54.092;12.122;2022-08-24T15:28:56;6.20;;;2.30;;
20488;SDS011;10403;54.092;12.122;2022-08-24T15:31:25;6.68;;;1.88;;
20488;SDS011;10403;54.092;12.122;2022-08-24T15:33:56;7.32;;;2.40;;
20488;SDS011;10403;54.092;12.122;2022-08-24T15:36:28;7.07;;;2.33;;
20488;SDS011;10403;54.092;12.122;2022-08-24T15:38:59;10.48;;;2.38;;
20488;SDS011;10403;54.092;12.122;2022-08-24T15:41:33;10.95;;;2.15;;
20488;SDS011;10403;54.092;12.122;2022-08-24T15:44:06;7.63;;;2.70;;
20488;SDS011;10403;54.092;12.122;2022-08-24T15:46:49;10.32;;;3.13;;
20488;SDS011;10403;54.092;12.122;2022-08-24T15:49:47;10.82;;;2.40;;
20488;SDS011;10403;54.092;12.122;2022-08-24T16:04:08;8.18;;;3.28;;
20488;SDS011;10403;54.092;12.122;2022-08-24T16:07:14;5.10;;;2.38;;
20488;SDS011;10403;54.092;12.122;2022-08-24T16:10:03;7.32;;;2.17;;
20488;SDS011;10403;54.092;12.122;2022-08-24T16:12:37;7.63;;;2.40;;
20488;SDS011;10403;54.092;12.122;2022-08-24T16:15:16;8.45;;;2.35;;
20488;SDS011;10403;54.092;12.122;2022-08-24T16:22:54;6.28;;;2.22;;
20488;SDS011;10403;54.092;12.122;2022-08-24T16:25:35;7.15;;;2.08;;
20488;SDS011;10403;54.092;12.122;2022-08-24T16:30:56;5.40;;;2.30;;
20488;SDS011;10403;54.092;12.122;2022-08-24T16:33:34;4.45;;;2.28;;
20488;SDS011;10403;54.092;12.122;2022-08-24T16:36:10;5.15;;;2.45;;
20488;SDS011;10403;54.092;12.122;2022-08-24T16:38:49;5.43;;;2.17;;
20488;SDS011;10403;54.092;12.122;2022-08-24T16:41:20;28.42;;;3.42;;
20488;SDS011;10403;54.092;12.122;2022-08-24T16:43:50;6.03;;;2.03;;
20488;SDS011;10403;54.092;12.122;2022-08-24T16:46:18;4.95;;;2.30;;
20488;SDS011;10403;54.092;12.122;2022-08-24T16:48:48;9.43;;;2.40;;
20488;SDS011;10403;54.092;12.122;2022-08-24T16:51:16;7.75;;;2.10;;
20488;SDS011;10403;54.092;12.122;2022-08-24T16:53:43;3.58;;;1.73;;
20488;SDS011;10403;54.092;12.122;2022-08-24T16:56:10;8.38;;;2.17;;
20488;SDS011;10403;54.092;12.122;2022-08-24T16:58:42;8.02;;;2.20;;
20488;SDS011;10403;54.092;12.122;2022-08-24T17:01:13;8.52;;;2.00;;
20488;SDS011;10403;54.092;12.122;2022-08-24T17:03:41;4.68;;;2.40;;
20488;SDS011;10403;54.092;12.122;2022-08-24T17:06:08;9.57;;;2.30;;
20488;SDS011;10403;54.092;12.122;2022-08-24T17:08:40;8.20;;;2.50;;
20488;SDS011;10403;54.092;12.122;2022-08-24T17:11:07;4.53;;;2.10;;
20488;SDS011;10403;54.092;12.122;2022-08-24T17:13:34;6.47;;;2.17;;
20488;SDS011;10403;54.092;12.122;2022-08-24T17:16:17;12.45;;;2.30;;
20488;SDS011;10403;54.092;12.122;2022-08-24T17:18:46;9.25;;;2.75;;
20488;SDS011;10403;54.092;12.122;2022-08-24T17:21:14;4.43;;;1.92;;
20488;SDS011;10403;54.092;12.122;2022-08-24T17:23:42;7.13;;;2.30;;
20488;SDS011;10403;54.092;12.122;2022-08-24T17:26:11;5.65;;;1.83;;
20488;SDS011;10403;54.092;12.122;2022-08-24T17:28:47;8.10;;;2.40;;
20488;SDS011;10403;54.092;12.122;2022-08-24T17:31:17;4.82;;;2.20;;
20488;SDS011;10403;54.092;12.122;2022-08-24T17:33:45;4.75;;;2.40;;
20488;SDS011;10403;54.092;12.122;2022-08-24T17:36:12;8.25;;;2.47;;
20488;SDS011;10403;54.092;12.122;2022-08-24T17:38:43;4.93;;;2.47;;
20488;SDS011;10403;54.092;12.122;2022-08-24T17:41:20;4.72;;;2.15;;
20488;SDS011;10403;54.092;12.122;2022-08-24T17:43:50;4.90;;;2.22;;
20488;SDS011;10403;54.092;12.122;2022-08-24T17:46:18;3.15;;;2.03;;
20488;SDS011;10403;54.092;12.122;2022-08-24T17:48:46;6.80;;;2.40;;
20488;SDS011;10403;54.092;12.122;2022-08-24T17:51:14;4.20;;;1.83;;
20488;SDS011;10403;54.092;12.122;2022-08-24T17:53:41;4.97;;;2.05;;
20488;SDS011;10403;54.092;12.122;2022-08-24T17:56:09;4.40;;;2.17;;
20488;SDS011;10403;54.092;12.122;2022-08-24T17:58:39;3.50;;;1.98;;
20488;SDS011;10403;54.092;12.122;2022-08-24T18:01:26;4.75;;;2.00;;
20488;SDS011;10403;54.092;12.122;2022-08-24T18:03:53;3.58;;;1.73;;
20488;SDS011;10403;54.092;12.122;2022-08-24T18:06:21;7.75;;;2.60;;
20488;SDS011;10403;54.092;12.122;2022-08-24T18:08:51;5.68;;;1.98;;
20488;SDS011;10403;54.092;12.122;2022-08-24T18:11:21;4.75;;;2.22;;
20488;SDS011;10403;54.092;12.122;2022-08-24T18:13:56;5.45;;;2.38;;
20488;SDS011;10403;54.092;12.122;2022-08-24T18:16:23;8.00;;;2.10;;
20488;SDS011;10403;54.092;12.122;2022-08-24T18:18:53;8.18;;;1.98;;
20488;SDS011;10403;54.092;12.122;2022-08-24T18:21:20;3.17;;;1.80;;
20488;SDS011;10403;54.092;12.122;2022-08-24T18:23:48;5.15;;;1.73;;
20488;SDS011;10403;54.092;12.122;2022-08-24T18:26:26;3.90;;;2.13;;
20488;SDS011;10403;54.092;12.122;2022-08-24T18:28:56;3.83;;;1.73;;
20488;SDS011;10403;54.092;12.122;2022-08-24T18:31:34;5.45;;;2.08;;
20488;SDS011;10403;54.092;12.122;2022-08-24T18:34:01;10.77;;;2.80;;
20488;SDS011;10403;54.092;12.122;2022-08-24T18:36:28;8.80;;;2.30;;
20488;SDS011;10403;54.092;12.122;2022-08-24T18:38:56;4.53;;;2.28;;
20488;SDS011;10403;54.092;12.122;2022-08-24T18:41:24;4.32;;;1.90;;
20488;SDS011;10403;54.092;12.122;2022-08-24T18:44:00;6.15;;;2.08;;
20488;SDS011;10403;54.092;12.122;2022-08-24T18:46:30;6.97;;;2.38;;
20488;SDS011;10403;54.092;12.122;2022-08-24T18:48:58;4.90;;;2.40;;
20488;SDS011;10403;54.092;12.122;2022-08-24T18:51:26;8.02;;;2.17;;
20488;SDS011;10403;54.092;12.122;2022-08-24T18:54:06;5.93;;;2.22;;
20488;SDS011;10403;54.092;12.122;2022-08-24T18:56:38;7.20;;;2.15;;
20488;SDS011;10403;54.092;12.122;2022-08-24T18:59:05;8.50;;;2.42;;
20488;SDS011;10403;54.092;12.122;2022-08-24T19:01:39;4.35;;;2.35;;
20488;SDS011;10403;54.092;12.122;2022-08-24T19:04:27;7.72;;;2.20;;
20488;SDS011;10403;54.092;12.122;2022-08-24T19:06:59;7.82;;;2.47;;
20488;SDS011;10403;54.092;12.122;2022-08-24T19:09:26;6.00;;;1.98;;
20488;SDS011;10403;54.092;12.122;2022-08-24T19:11:59;7.75;;;2.17;;